createdAt,value
2022-09-06T00:00:44.929Z,991.04
2022-09-06T00:01:44.924Z,991.00
2022-09-06T00:02:44.990Z,990.99
2022-09-06T00:03:45.002Z,990.97
2022-09-06T00:04:44.889Z,990.94
2022-09-06T00:05:44.881Z,990.94
2022-09-06T00:06:44.886Z,990.98
2022-09-06T00:07:44.872Z,990.94
2022-09-06T00:08:44.855Z,990.95
2022-09-06T00:09:44.859Z,991.03
2022-09-06T00:10:44.881Z,990.96
2022-09-06T00:11:44.835Z,990.94
2022-09-06T00:12:44.822Z,990.96
2022-09-06T00:13:44.808Z,990.99
2022-09-06T00:14:44.792Z,990.98
2022-09-06T00:15:44.884Z,990.96
2022-09-06T00:16:44.775Z,990.99
2022-09-06T00:17:44.779Z,991.08
2022-09-06T00:18:44.752Z,991.04
2022-09-06T00:19:44.746Z,991.03
2022-09-06T00:20:44.736Z,991.00
2022-09-06T00:21:44.784Z,990.99
2022-09-06T00:22:44.714Z,991.06
2022-09-06T00:23:44.705Z,991.03
2022-09-06T00:24:44.694Z,991.00
2022-09-06T00:25:44.691Z,991.03
2022-09-06T00:26:44.699Z,990.99
2022-09-06T00:27:44.670Z,991.00
2022-09-06T00:28:44.656Z,991.01
2022-09-06T00:29:44.650Z,990.98
2022-09-06T00:30:44.684Z,990.99
2022-09-06T00:31:44.646Z,990.99
2022-09-06T00:32:44.621Z,990.94
2022-09-06T00:33:44.630Z,990.99
2022-09-06T00:34:44.605Z,991.00
2022-09-06T00:35:44.590Z,990.91
2022-09-06T00:36:44.580Z,990.96
2022-09-06T00:37:44.570Z,990.94
2022-09-06T00:38:44.584Z,990.92
2022-09-06T00:39:44.582Z,990.96
2022-09-06T00:40:44.540Z,990.93
2022-09-06T00:41:44.529Z,990.87
2022-09-06T00:42:44.524Z,990.93
2022-09-06T00:43:44.536Z,990.85
2022-09-06T00:44:44.497Z,990.88
2022-09-06T00:45:44.492Z,990.86
2022-09-06T00:46:44.543Z,990.87
2022-09-06T00:47:44.476Z,990.89
2022-09-06T00:48:44.701Z,990.89
2022-09-06T00:49:44.468Z,990.90
2022-09-06T00:50:44.454Z,990.87
2022-09-06T00:51:44.436Z,990.87
2022-09-06T00:52:44.431Z,990.82
2022-09-06T00:53:44.440Z,990.89
2022-09-06T00:54:44.412Z,990.87
2022-09-06T00:55:44.405Z,990.84
2022-09-06T00:56:44.388Z,990.80
2022-09-06T00:57:44.445Z,990.84
2022-09-06T00:58:44.396Z,990.83
2022-09-06T00:59:44.361Z,990.90
2022-09-06T01:00:44.354Z,990.92
2022-09-06T01:01:44.421Z,990.93
2022-09-06T01:02:44.380Z,990.90
2022-09-06T01:03:44.353Z,990.92
2022-09-06T01:04:44.311Z,990.90
2022-09-06T01:05:44.326Z,990.88
2022-09-06T01:06:44.294Z,990.89
2022-09-06T01:07:44.284Z,990.90
2022-09-06T01:08:44.270Z,990.86
2022-09-06T01:09:44.269Z,990.87
2022-09-06T01:10:44.273Z,990.89
2022-09-06T01:11:44.251Z,990.90
2022-09-06T01:12:44.246Z,990.84
2022-09-06T01:13:44.233Z,990.82
2022-09-06T01:14:44.213Z,990.84
2022-09-06T01:15:44.235Z,990.78
2022-09-06T01:16:44.194Z,990.78
2022-09-06T01:17:44.182Z,990.76
2022-09-06T01:18:44.179Z,990.76
2022-09-06T01:19:44.166Z,990.73
2022-09-06T01:20:44.199Z,990.70
2022-09-06T01:21:44.135Z,990.68
2022-09-06T01:22:44.138Z,990.70
2022-09-06T01:23:44.122Z,990.67
2022-09-06T01:25:16.022Z,990.66
2022-09-06T01:25:44.120Z,990.68
2022-09-06T01:26:44.077Z,990.74
2022-09-06T01:27:44.103Z,990.66
2022-09-06T01:28:44.075Z,990.71
2022-09-06T01:29:44.055Z,990.73
2022-09-06T01:30:44.085Z,990.76
2022-09-06T01:31:44.044Z,990.78
2022-09-06T01:32:44.049Z,990.78
2022-09-06T01:33:44.025Z,990.78
2022-09-06T01:34:44.017Z,990.70
2022-09-06T01:35:44.006Z,990.72
2022-09-06T01:37:06.187Z,990.71
2022-09-06T01:37:46.014Z,990.77
2022-09-06T01:38:43.984Z,990.65
2022-09-06T01:39:44.039Z,990.73
2022-09-06T01:40:43.960Z,990.69
2022-09-06T01:41:43.969Z,990.72
2022-09-06T01:42:43.941Z,990.59
2022-09-06T01:43:43.937Z,990.62
2022-09-06T01:44:43.942Z,990.59
2022-09-06T01:45:43.992Z,990.59
2022-09-06T01:46:43.901Z,990.61
2022-09-06T01:47:43.996Z,990.56
2022-09-06T01:48:43.879Z,990.63
2022-09-06T01:49:43.893Z,990.66
2022-09-06T01:50:43.859Z,990.61
2022-09-06T01:51:43.861Z,990.61
2022-09-06T01:52:43.854Z,990.58
2022-09-06T01:53:43.832Z,990.62
2022-09-06T01:54:44.846Z,990.59
2022-09-06T01:55:43.816Z,990.62
2022-09-06T01:56:43.798Z,990.62
2022-09-06T01:57:43.794Z,990.61
2022-09-06T01:58:43.808Z,990.58
2022-09-06T01:59:43.775Z,990.63
2022-09-06T02:00:43.773Z,990.60
2022-09-06T02:01:43.861Z,990.59
2022-09-06T02:02:43.847Z,990.59
2022-09-06T02:03:43.746Z,990.57
2022-09-06T02:04:43.745Z,990.56
2022-09-06T02:05:43.741Z,990.58
2022-09-06T02:06:43.713Z,990.55
2022-09-06T02:07:43.699Z,990.56
2022-09-06T02:08:43.692Z,990.61
2022-09-06T02:09:43.678Z,990.62
2022-09-06T02:10:43.709Z,990.64
2022-09-06T02:11:43.664Z,990.60
2022-09-06T02:12:44.651Z,990.61
2022-09-06T02:13:43.638Z,990.54
2022-09-06T02:14:43.623Z,990.52
2022-09-06T02:15:43.658Z,990.54
2022-09-06T02:16:43.639Z,990.54
2022-09-06T02:17:43.614Z,990.56
2022-09-06T02:18:43.593Z,990.54
2022-09-06T02:19:43.584Z,990.59
2022-09-06T02:20:43.590Z,990.54
2022-09-06T02:21:43.588Z,990.47
2022-09-06T02:22:43.554Z,990.56
2022-09-06T02:23:43.544Z,990.50
2022-09-06T02:24:43.536Z,990.54
2022-09-06T02:25:43.518Z,990.48
2022-09-06T02:26:43.540Z,990.51
2022-09-06T02:27:43.506Z,990.45
2022-09-06T02:28:43.493Z,990.37
2022-09-06T02:29:43.473Z,990.34
2022-09-06T02:30:43.608Z,990.34
2022-09-06T02:31:43.473Z,990.34
2022-09-06T02:32:43.469Z,990.27
2022-09-06T02:33:43.442Z,990.30
2022-09-06T02:34:43.423Z,990.32
2022-09-06T02:35:43.417Z,990.27
2022-09-06T02:36:43.406Z,990.26
2022-09-06T02:37:43.420Z,990.33
2022-09-06T02:38:43.411Z,990.38
2022-09-06T02:39:43.431Z,990.37
2022-09-06T02:40:43.371Z,990.34
2022-09-06T02:41:43.356Z,990.38
2022-09-06T02:42:43.366Z,990.41
2022-09-06T02:43:43.332Z,990.45
2022-09-06T02:44:43.346Z,990.38
2022-09-06T02:45:43.369Z,990.44
2022-09-06T02:46:43.311Z,990.42
2022-09-06T02:47:43.288Z,990.41
2022-09-06T02:48:44.295Z,990.42
2022-09-06T02:49:43.302Z,990.36
2022-09-06T02:50:43.270Z,990.45
2022-09-06T02:51:43.258Z,990.40
2022-09-06T02:52:43.277Z,990.34
2022-09-06T02:53:43.238Z,990.30
2022-09-06T02:54:43.221Z,990.35
2022-09-06T02:55:43.213Z,990.33
2022-09-06T02:56:43.204Z,990.30
2022-09-06T02:57:43.237Z,990.29
2022-09-06T02:58:43.214Z,990.31
2022-09-06T02:59:43.180Z,990.32
2022-09-06T03:00:43.174Z,990.29
2022-09-06T03:01:43.233Z,990.33
2022-09-06T03:02:43.226Z,990.31
2022-09-06T03:03:43.135Z,990.27
2022-09-06T03:04:43.124Z,990.21
2022-09-06T03:05:43.115Z,990.29
2022-09-06T03:06:43.106Z,990.28
2022-09-06T03:07:43.116Z,990.38
2022-09-06T03:08:43.098Z,990.39
2022-09-06T03:09:43.076Z,990.30
2022-09-06T03:10:43.066Z,990.32
2022-09-06T03:11:43.049Z,990.29
2022-09-06T03:12:44.099Z,990.34
2022-09-06T03:13:43.051Z,990.32
2022-09-06T03:14:43.042Z,990.28
2022-09-06T03:15:43.017Z,990.31
2022-09-06T03:16:43.068Z,990.27
2022-09-06T03:17:43.027Z,990.26
2022-09-06T03:18:42.999Z,990.19
2022-09-06T03:19:42.988Z,990.18
2022-09-06T03:20:42.981Z,990.17
2022-09-06T03:21:42.975Z,990.13
2022-09-06T03:22:42.971Z,990.17
2022-09-06T03:23:42.939Z,990.10
2022-09-06T03:24:42.935Z,990.11
2022-09-06T03:25:42.925Z,990.10
2022-09-06T03:26:42.936Z,990.15
2022-09-06T03:27:42.901Z,990.15
2022-09-06T03:28:42.892Z,990.15
2022-09-06T03:29:42.897Z,990.14
2022-09-06T03:30:42.945Z,990.17
2022-09-06T03:31:42.866Z,990.14
2022-09-06T03:32:42.909Z,990.12
2022-09-06T03:33:42.885Z,990.10
2022-09-06T03:34:42.863Z,990.11
2022-09-06T03:35:42.828Z,990.11
2022-09-06T03:36:42.879Z,990.12
2022-09-06T03:37:42.813Z,990.08
2022-09-06T03:38:42.801Z,990.03
2022-09-06T03:39:42.837Z,990.04
2022-09-06T03:40:42.783Z,990.05
2022-09-06T03:41:42.801Z,990.02
2022-09-06T03:42:42.764Z,990.08
2022-09-06T03:43:42.774Z,990.04
2022-09-06T03:44:42.743Z,990.04
2022-09-06T03:45:42.775Z,989.96
2022-09-06T03:46:42.745Z,989.99
2022-09-06T03:47:42.722Z,990.01
2022-09-06T03:48:42.711Z,990.01
2022-09-06T03:49:42.712Z,990.06
2022-09-06T03:50:42.693Z,990.04
2022-09-06T03:51:42.677Z,990.05
2022-09-06T03:52:42.688Z,990.08
2022-09-06T03:53:42.701Z,990.03
2022-09-06T03:54:42.641Z,989.94
2022-09-06T03:55:42.645Z,990.06
2022-09-06T03:56:42.623Z,989.95
2022-09-06T03:57:42.643Z,989.97
2022-09-06T03:58:42.608Z,989.96
2022-09-06T03:59:42.597Z,990.05
2022-09-06T04:00:42.595Z,989.99
2022-09-06T04:01:42.692Z,989.97
2022-09-06T04:02:42.662Z,989.97
2022-09-06T04:03:42.564Z,989.99
2022-09-06T04:04:42.555Z,989.96
2022-09-06T04:05:42.559Z,989.94
2022-09-06T04:06:42.555Z,989.98
2022-09-06T04:07:42.513Z,989.92
2022-09-06T04:08:42.512Z,989.93
2022-09-06T04:09:42.502Z,989.91
2022-09-06T04:10:42.486Z,989.90
2022-09-06T04:11:45.033Z,989.89
2022-09-06T04:12:43.467Z,989.91
2022-09-06T04:13:42.468Z,989.87
2022-09-06T04:14:42.466Z,989.91
2022-09-06T04:15:42.437Z,989.96
2022-09-06T04:16:42.472Z,989.96
2022-09-06T04:17:42.424Z,989.98
2022-09-06T04:18:42.417Z,990.11
2022-09-06T04:19:42.417Z,990.17
2022-09-06T04:20:42.410Z,990.22
2022-09-06T04:21:42.378Z,990.20
2022-09-06T04:22:42.401Z,990.15
2022-09-06T04:23:42.365Z,990.15
2022-09-06T04:24:42.346Z,990.12
2022-09-06T04:25:42.366Z,990.04
2022-09-06T04:26:42.348Z,989.96
2022-09-06T04:27:42.330Z,989.94
2022-09-06T04:28:42.343Z,990.01
2022-09-06T04:29:42.296Z,990.14
2022-09-06T04:30:42.286Z,990.18
2022-09-06T04:31:42.308Z,990.23
2022-09-06T04:32:42.273Z,990.23
2022-09-06T04:33:42.292Z,990.24
2022-09-06T04:34:42.245Z,990.15
2022-09-06T04:35:42.240Z,990.12
2022-09-06T04:36:45.403Z,990.09
2022-09-06T04:37:44.230Z,990.06
2022-09-06T04:38:42.236Z,990.05
2022-09-06T04:39:42.257Z,989.96
2022-09-06T04:40:42.189Z,989.92
2022-09-06T04:41:42.178Z,989.90
2022-09-06T04:42:42.317Z,989.96
2022-09-06T04:43:42.170Z,990.07
2022-09-06T04:44:42.264Z,990.13
2022-09-06T04:45:42.178Z,990.17
2022-09-06T04:46:43.222Z,990.13
2022-09-06T04:47:42.138Z,990.15
2022-09-06T04:48:42.122Z,990.11
2022-09-06T04:49:42.142Z,990.13
2022-09-06T04:50:42.100Z,990.17
2022-09-06T04:51:42.085Z,990.11
2022-09-06T04:52:42.078Z,990.07
2022-09-06T04:53:42.073Z,990.05
2022-09-06T04:54:42.076Z,989.96
2022-09-06T04:55:42.065Z,990.03
2022-09-06T04:56:42.043Z,990.09
2022-09-06T04:57:45.769Z,990.18
2022-09-06T04:58:44.022Z,990.11
2022-09-06T04:59:42.024Z,990.01
2022-09-06T05:00:42.053Z,989.94
2022-09-06T05:01:41.991Z,989.90
2022-09-06T05:02:42.034Z,989.93
2022-09-06T05:03:41.967Z,990.06
2022-09-06T05:04:41.956Z,990.15
2022-09-06T05:05:41.952Z,990.23
2022-09-06T05:06:41.968Z,990.22
2022-09-06T05:07:41.939Z,990.11
2022-09-06T05:08:41.919Z,990.03
2022-09-06T05:09:41.930Z,989.98
2022-09-06T05:10:41.892Z,989.97
2022-09-06T05:11:41.883Z,990.05
2022-09-06T05:12:44.270Z,990.10
2022-09-06T05:13:41.872Z,990.03
2022-09-06T05:14:41.863Z,990.05
2022-09-06T05:15:41.852Z,989.99
2022-09-06T05:16:41.908Z,989.98
2022-09-06T05:17:41.855Z,990.09
2022-09-06T05:18:41.826Z,990.17
2022-09-06T05:19:41.802Z,990.33
2022-09-06T05:20:42.801Z,990.32
2022-09-06T05:21:41.785Z,990.33
2022-09-06T05:22:41.789Z,990.32
2022-09-06T05:23:41.791Z,990.35
2022-09-06T05:24:41.776Z,990.35
2022-09-06T05:25:41.753Z,990.40
2022-09-06T05:26:41.735Z,990.43
2022-09-06T05:27:41.754Z,990.37
2022-09-06T05:28:41.734Z,990.44
2022-09-06T05:29:41.708Z,990.44
2022-09-06T05:30:41.735Z,990.47
2022-09-06T05:31:41.748Z,990.33
2022-09-06T05:32:41.685Z,990.36
2022-09-06T05:33:41.674Z,990.37
2022-09-06T05:34:41.681Z,990.38
2022-09-06T05:35:41.661Z,990.38
2022-09-06T05:36:41.663Z,990.40
2022-09-06T05:37:41.620Z,990.38
2022-09-06T05:38:42.627Z,990.29
2022-09-06T05:39:41.677Z,990.25
2022-09-06T05:40:41.609Z,990.21
2022-09-06T05:41:41.610Z,990.22
2022-09-06T05:42:41.582Z,990.27
2022-09-06T05:43:41.588Z,990.35
2022-09-06T05:44:41.570Z,990.34
2022-09-06T05:45:41.604Z,990.25
2022-09-06T05:46:41.560Z,990.20
2022-09-06T05:47:41.548Z,990.28
2022-09-06T05:48:41.540Z,990.35
2022-09-06T05:49:41.512Z,990.37
2022-09-06T05:50:41.515Z,990.32
2022-09-06T05:51:41.513Z,990.27
2022-09-06T05:52:41.498Z,990.28
2022-09-06T05:53:41.481Z,990.17
2022-09-06T05:54:41.466Z,990.24
2022-09-06T05:55:43.144Z,990.24
2022-09-06T05:56:42.456Z,990.23
2022-09-06T05:57:41.436Z,990.28
2022-09-06T05:58:41.425Z,990.30
2022-09-06T05:59:41.444Z,990.33
2022-09-06T06:00:41.433Z,990.32
2022-09-06T06:01:41.447Z,990.34
2022-09-06T06:02:41.410Z,990.41
2022-09-06T06:03:41.381Z,990.39
2022-09-06T06:04:41.362Z,990.41
2022-09-06T06:05:41.508Z,990.36
2022-09-06T06:06:41.349Z,990.36
2022-09-06T06:07:41.350Z,990.35
2022-09-06T06:08:41.334Z,990.34
2022-09-06T06:09:41.334Z,990.39
2022-09-06T06:10:41.471Z,990.44
2022-09-06T06:11:41.301Z,990.49
2022-09-06T06:12:41.295Z,990.42
2022-09-06T06:13:41.314Z,990.47
2022-09-06T06:14:41.296Z,990.38
2022-09-06T06:15:41.298Z,990.37
2022-09-06T06:16:41.510Z,990.41
2022-09-06T06:17:41.253Z,990.43
2022-09-06T06:18:41.229Z,990.47
2022-09-06T06:19:41.223Z,990.45
2022-09-06T06:20:41.237Z,990.49
2022-09-06T06:21:41.214Z,990.49
2022-09-06T06:22:41.199Z,990.47
2022-09-06T06:23:41.197Z,990.39
2022-09-06T06:24:41.172Z,990.37
2022-09-06T06:25:41.198Z,990.34
2022-09-06T06:26:41.152Z,990.30
2022-09-06T06:27:41.175Z,990.37
2022-09-06T06:28:41.162Z,990.31
2022-09-06T06:29:41.131Z,990.40
2022-09-06T06:30:41.125Z,990.41
2022-09-06T06:31:41.138Z,990.48
2022-09-06T06:32:41.138Z,990.47
2022-09-06T06:33:41.104Z,990.42
2022-09-06T06:34:41.086Z,990.39
2022-09-06T06:35:41.104Z,990.42
2022-09-06T06:36:41.073Z,990.43
2022-09-06T06:37:41.050Z,990.47
2022-09-06T06:38:41.068Z,990.43
2022-09-06T06:39:41.083Z,990.40
2022-09-06T06:40:41.023Z,990.38
2022-09-06T06:41:41.009Z,990.43
2022-09-06T06:42:41.001Z,990.43
2022-09-06T06:43:41.003Z,990.34
2022-09-06T06:44:40.969Z,990.41
2022-09-06T06:45:42.049Z,990.39
2022-09-06T06:46:40.984Z,990.38
2022-09-06T06:47:40.950Z,990.31
2022-09-06T06:48:40.946Z,990.26
2022-09-06T06:49:40.949Z,990.30
2022-09-06T06:50:40.929Z,990.30
2022-09-06T06:51:40.926Z,990.30
2022-09-06T06:52:40.911Z,990.31
2022-09-06T06:53:40.898Z,990.35
2022-09-06T06:54:40.914Z,990.29
2022-09-06T06:55:40.878Z,990.29
2022-09-06T06:56:40.889Z,990.29
2022-09-06T06:57:40.852Z,990.26
2022-09-06T06:58:40.846Z,990.27
2022-09-06T06:59:40.836Z,990.32
2022-09-06T07:00:40.850Z,990.22
2022-09-06T07:01:40.915Z,990.29
2022-09-06T07:02:40.820Z,990.29
2022-09-06T07:03:40.805Z,990.25
2022-09-06T07:04:41.796Z,990.29
2022-09-06T07:07:42.782Z,990.22
2022-09-06T07:08:40.741Z,990.30
2022-09-06T07:10:40.721Z,990.24
2022-09-06T07:11:40.717Z,990.31
2022-09-06T07:12:40.733Z,990.27
2022-09-06T07:13:40.696Z,990.28
2022-09-06T07:14:40.684Z,990.33
2022-09-06T07:15:40.667Z,990.24
2022-09-06T07:16:40.711Z,990.27
2022-09-06T07:17:40.822Z,990.27
2022-09-06T07:18:40.651Z,990.22
2022-09-06T07:21:40.626Z,990.30
2022-09-06T07:22:40.666Z,990.33
2022-09-06T07:24:41.594Z,990.36
2022-09-06T07:26:12.506Z,990.35
2022-09-06T07:26:40.870Z,990.37
2022-09-06T07:27:48.617Z,990.31
2022-09-06T07:28:42.561Z,990.28
2022-09-06T07:29:40.547Z,990.29
2022-09-06T07:30:40.532Z,990.32
2022-09-06T07:32:40.520Z,990.36
2022-09-06T07:33:40.496Z,990.33
2022-09-06T07:34:41.496Z,990.35
2022-09-06T07:35:40.486Z,990.30
2022-09-06T07:36:40.491Z,990.35
2022-09-06T07:37:40.467Z,990.32
2022-09-06T07:38:40.455Z,990.38
2022-09-06T07:39:40.518Z,990.30
2022-09-06T07:40:40.451Z,990.30
2022-09-06T07:41:40.439Z,990.27
2022-09-06T07:42:40.433Z,990.32
2022-09-06T07:43:40.407Z,990.40
2022-09-06T07:44:40.423Z,990.35
2022-09-06T07:45:40.394Z,990.29
2022-09-06T07:46:40.420Z,990.42
2022-09-06T07:48:41.366Z,990.35
2022-09-06T07:49:40.441Z,990.18
2022-09-06T07:50:48.915Z,990.21
2022-09-06T07:51:42.335Z,990.19
2022-09-06T07:53:41.332Z,990.17
2022-09-06T07:54:40.306Z,990.22
2022-09-06T07:55:40.293Z,990.19
2022-09-06T07:56:40.294Z,990.24
2022-09-06T07:57:40.280Z,990.23
2022-09-06T07:58:40.284Z,990.20
2022-09-06T07:59:42.993Z,990.20
2022-09-06T08:00:40.293Z,990.19
2022-09-06T08:01:40.325Z,990.21
2022-09-06T08:02:40.232Z,990.20
2022-09-06T08:03:40.243Z,990.23
2022-09-06T08:04:40.263Z,990.22
2022-09-06T08:07:41.162Z,990.17
2022-09-06T08:09:41.183Z,990.12
2022-09-06T08:10:40.154Z,990.21
2022-09-06T08:11:40.136Z,990.18
2022-09-06T08:12:40.140Z,990.19
2022-09-06T08:13:40.135Z,990.20
2022-09-06T08:14:40.123Z,990.27
2022-09-06T08:15:41.708Z,990.19
2022-09-06T08:16:40.185Z,990.19
2022-09-06T08:17:40.091Z,990.18
2022-09-06T08:18:40.068Z,990.25
2022-09-06T08:19:40.057Z,990.25
2022-09-06T08:20:40.058Z,990.34
2022-09-06T08:21:40.063Z,990.19
2022-09-06T08:22:40.041Z,990.23
2022-09-06T08:23:40.023Z,990.30
2022-09-06T08:24:40.021Z,990.25
2022-09-06T08:25:40.005Z,990.30
2022-09-06T08:26:40.019Z,990.29
2022-09-06T08:27:40.003Z,990.35
2022-09-06T08:28:39.969Z,990.30
2022-09-06T08:29:39.977Z,990.26
2022-09-06T08:30:39.948Z,990.28
2022-09-06T08:31:40.021Z,990.29
2022-09-06T08:32:39.956Z,990.28
2022-09-06T08:33:39.924Z,990.31
2022-09-06T08:34:39.912Z,990.32
2022-09-06T08:35:40.911Z,990.34
2022-09-06T08:36:39.893Z,990.31
2022-09-06T08:37:39.888Z,990.28
2022-09-06T08:38:39.909Z,990.23
2022-09-06T08:39:39.916Z,990.31
2022-09-06T08:40:39.844Z,990.27
2022-09-06T08:41:40.853Z,990.24
2022-09-06T08:42:39.846Z,990.16
2022-09-06T08:43:39.828Z,990.24
2022-09-06T08:44:55.897Z,990.21
2022-09-06T08:45:41.817Z,990.18
2022-09-06T08:46:39.843Z,990.20
2022-09-06T08:47:39.812Z,990.15
2022-09-06T08:48:39.817Z,990.21
2022-09-06T08:49:39.771Z,990.15
2022-09-06T08:50:39.765Z,990.14
2022-09-06T08:51:39.759Z,990.15
2022-09-06T08:52:49.554Z,990.12
2022-09-06T08:53:41.735Z,990.12
2022-09-06T08:54:39.717Z,990.16
2022-09-06T08:55:39.716Z,990.11
2022-09-06T08:56:39.716Z,990.10
2022-09-06T08:57:40.546Z,990.13
2022-09-06T08:58:39.687Z,990.13
2022-09-06T08:59:39.665Z,990.17
2022-09-06T09:00:39.837Z,990.14
2022-09-06T09:01:39.700Z,990.09
2022-09-06T09:02:39.652Z,990.11
2022-09-06T09:03:39.663Z,990.10
2022-09-06T09:04:39.634Z,990.14
2022-09-06T09:05:39.610Z,990.05
2022-09-06T09:06:39.608Z,990.08
2022-09-06T09:07:39.585Z,989.97
2022-09-06T09:08:39.619Z,989.93
2022-09-06T09:09:39.585Z,989.95
2022-09-06T09:10:39.598Z,989.93
2022-09-06T09:11:39.569Z,989.98
2022-09-06T09:12:39.546Z,990.00
2022-09-06T09:13:39.536Z,989.95
2022-09-06T09:14:39.523Z,989.92
2022-09-06T09:15:40.604Z,989.91
2022-09-06T09:16:39.611Z,989.88
2022-09-06T09:17:40.505Z,989.89
2022-09-06T09:18:39.516Z,989.87
2022-09-06T09:19:39.485Z,989.82
2022-09-06T09:20:39.476Z,989.91
2022-09-06T09:21:39.468Z,989.85
2022-09-06T09:22:39.485Z,989.81
2022-09-06T09:23:39.438Z,989.79
2022-09-06T09:24:40.436Z,989.83
2022-09-06T09:25:39.434Z,989.81
2022-09-06T09:26:39.425Z,989.77
2022-09-06T09:27:39.611Z,989.76
2022-09-06T09:28:39.408Z,989.81
2022-09-06T09:29:39.450Z,989.85
2022-09-06T09:31:40.460Z,989.83
2022-09-06T09:32:39.355Z,989.74
2022-09-06T09:33:39.352Z,989.69
2022-09-06T09:34:39.339Z,989.72
2022-09-06T09:35:39.333Z,989.68
2022-09-06T09:36:39.381Z,989.70
2022-09-06T09:37:46.962Z,989.65
2022-09-06T09:38:41.325Z,989.71
2022-09-06T09:39:39.395Z,989.65
2022-09-06T09:40:39.299Z,989.65
2022-09-06T09:41:39.274Z,989.67
2022-09-06T09:42:39.264Z,989.66
2022-09-06T09:43:39.262Z,989.59
2022-09-06T09:44:39.270Z,989.64
2022-09-06T09:45:39.236Z,989.59
2022-09-06T09:46:39.336Z,989.58
2022-09-06T09:47:39.223Z,989.53
2022-09-06T09:48:39.224Z,989.47
2022-09-06T09:49:39.195Z,989.51
2022-09-06T09:50:39.195Z,989.53
2022-09-06T09:51:39.212Z,989.49
2022-09-06T09:52:39.161Z,989.53
2022-09-06T09:53:39.150Z,989.47
2022-09-06T09:54:39.139Z,989.50
2022-09-06T09:55:39.140Z,989.51
2022-09-06T09:56:39.149Z,989.45
2022-09-06T09:57:39.113Z,989.40
2022-09-06T09:58:39.100Z,989.43
2022-09-06T09:59:39.123Z,989.45
2022-09-06T10:00:39.130Z,989.44
2022-09-06T10:01:39.083Z,989.44
2022-09-06T10:02:39.104Z,989.36
2022-09-06T10:05:39.039Z,989.31
2022-09-06T10:07:40.023Z,989.31
2022-09-06T10:08:39.013Z,989.36
2022-09-06T10:09:39.023Z,989.31
2022-09-06T10:10:38.991Z,989.32
2022-09-06T10:11:38.984Z,989.25
2022-09-06T10:12:38.985Z,989.30
2022-09-06T10:13:38.973Z,989.27
2022-09-06T10:14:38.985Z,989.26
2022-09-06T10:15:39.118Z,989.23
2022-09-06T10:16:38.922Z,989.24
2022-09-06T10:17:38.931Z,989.27
2022-09-06T10:18:38.917Z,989.26
2022-09-06T10:19:38.902Z,989.29
2022-09-06T10:20:38.924Z,989.28
2022-09-06T10:21:38.884Z,989.29
2022-09-06T10:22:38.876Z,989.25
2022-09-06T10:24:38.867Z,989.24
2022-09-06T10:25:38.892Z,989.23
2022-09-06T10:26:38.882Z,989.25
2022-09-06T10:27:45.721Z,989.20
2022-09-06T10:28:39.836Z,989.19
2022-09-06T10:29:38.808Z,989.21
2022-09-06T10:30:38.798Z,989.25
2022-09-06T10:31:38.819Z,989.23
2022-09-06T10:32:38.792Z,989.18
2022-09-06T10:33:38.806Z,989.28
2022-09-06T10:34:38.800Z,989.21
2022-09-06T10:35:38.771Z,989.31
2022-09-06T10:36:38.752Z,989.31
2022-09-06T10:37:38.730Z,989.27
2022-09-06T10:38:38.722Z,989.26
2022-09-06T10:39:38.749Z,989.23
2022-09-06T10:40:38.727Z,989.23
2022-09-06T10:41:38.706Z,989.28
2022-09-06T10:42:38.694Z,989.23
2022-09-06T10:43:38.686Z,989.22
2022-09-06T10:44:38.694Z,989.18
2022-09-06T10:45:38.667Z,989.12
2022-09-06T10:46:38.711Z,989.11
2022-09-06T10:47:38.646Z,989.09
2022-09-06T10:48:38.636Z,989.17
2022-09-06T10:49:38.643Z,989.03
2022-09-06T10:50:38.619Z,989.07
2022-09-06T10:51:38.625Z,989.04
2022-09-06T10:52:38.650Z,989.11
2022-09-06T10:53:38.590Z,989.09
2022-09-06T10:54:38.577Z,989.09
2022-09-06T10:55:38.575Z,989.11
2022-09-06T10:56:38.584Z,989.12
2022-09-06T10:59:39.538Z,989.06
2022-09-06T11:00:38.519Z,989.04
2022-09-06T11:01:38.603Z,989.02
2022-09-06T11:02:38.783Z,989.01
2022-09-06T11:03:55.656Z,989.07
2022-09-06T11:05:39.725Z,989.07
2022-09-06T11:06:38.482Z,989.03
2022-09-06T11:07:38.476Z,988.98
2022-09-06T11:08:45.932Z,989.05
2022-09-06T11:09:40.443Z,989.02
2022-09-06T11:10:38.431Z,989.03
2022-09-06T11:11:38.441Z,988.97
2022-09-06T11:12:38.427Z,988.97
2022-09-06T11:13:38.401Z,988.94
2022-09-06T11:14:38.394Z,988.90
2022-09-06T11:15:38.462Z,988.93
2022-09-06T11:16:38.372Z,988.96
2022-09-06T11:17:38.365Z,988.93
2022-09-06T11:18:38.356Z,988.83
2022-09-06T11:19:38.360Z,988.87
2022-09-06T11:20:38.324Z,988.91
2022-09-06T11:21:38.326Z,988.89
2022-09-06T11:22:38.320Z,988.87
2022-09-06T11:23:38.301Z,988.96
2022-09-06T11:24:38.328Z,988.94
2022-09-06T11:25:38.301Z,988.89
2022-09-06T11:26:38.276Z,988.93
2022-09-06T11:27:38.282Z,988.88
2022-09-06T11:28:38.290Z,988.92
2022-09-06T11:29:39.270Z,988.83
2022-09-06T11:30:38.279Z,988.93
2022-09-06T11:32:39.231Z,988.86
2022-09-06T11:33:38.203Z,988.81
2022-09-06T11:34:38.207Z,988.87
2022-09-06T11:35:38.218Z,988.81
2022-09-06T11:36:38.187Z,988.78
2022-09-06T11:37:38.170Z,988.80
2022-09-06T11:38:38.166Z,988.76
2022-09-06T11:40:38.157Z,988.73
2022-09-06T11:41:38.181Z,988.67
2022-09-06T11:42:38.127Z,988.69
2022-09-06T11:43:38.138Z,988.70
2022-09-06T11:44:38.105Z,988.64
2022-09-06T11:45:38.107Z,988.62
2022-09-06T11:46:38.141Z,988.67
2022-09-06T11:47:38.083Z,988.65
2022-09-06T11:48:38.086Z,988.65
2022-09-06T11:49:38.066Z,988.62
2022-09-06T11:50:38.060Z,988.63
2022-09-06T11:51:38.053Z,988.59
2022-09-06T11:52:38.055Z,988.61
2022-09-06T11:53:38.073Z,988.60
2022-09-06T11:54:38.022Z,988.59
2022-09-06T11:55:38.007Z,988.51
2022-09-06T11:56:38.002Z,988.50
2022-09-06T11:57:37.993Z,988.52
2022-09-06T11:58:38.298Z,988.57
2022-09-06T11:59:37.977Z,988.56
2022-09-06T12:00:37.960Z,988.55
2022-09-06T12:01:37.946Z,988.50
2022-09-06T12:02:38.078Z,988.50
2022-09-06T12:04:37.927Z,988.49
2022-09-06T12:05:37.914Z,988.55
2022-09-06T12:06:37.894Z,988.52
2022-09-06T12:07:37.912Z,988.48
2022-09-06T12:08:37.870Z,988.53
2022-09-06T12:09:37.896Z,988.49
2022-09-06T12:10:37.855Z,988.52
2022-09-06T12:11:37.842Z,988.51
2022-09-06T12:12:37.840Z,988.58
2022-09-06T12:13:37.830Z,988.53
2022-09-06T12:14:37.836Z,988.42
2022-09-06T12:15:37.860Z,988.49
2022-09-06T12:16:37.790Z,988.48
2022-09-06T12:17:37.784Z,988.51
2022-09-06T12:18:37.776Z,988.55
2022-09-06T12:19:40.951Z,988.50
2022-09-06T12:20:39.773Z,988.47
2022-09-06T12:21:37.772Z,988.45
2022-09-06T12:22:37.752Z,988.41
2022-09-06T12:23:37.731Z,988.39
2022-09-06T12:24:37.753Z,988.45
2022-09-06T12:25:37.724Z,988.40
2022-09-06T12:26:37.702Z,988.42
2022-09-06T12:27:37.753Z,988.38
2022-09-06T12:28:37.676Z,988.36
2022-09-06T12:29:38.700Z,988.40
2022-09-06T12:30:37.699Z,988.42
2022-09-06T12:31:37.760Z,988.39
2022-09-06T12:32:37.647Z,988.35
2022-09-06T12:33:37.666Z,988.37
2022-09-06T12:34:37.634Z,988.33
2022-09-06T12:36:37.605Z,988.33
2022-09-06T12:37:37.606Z,988.29
2022-09-06T12:38:37.641Z,988.26
2022-09-06T12:39:37.612Z,988.25
2022-09-06T12:40:37.566Z,988.30
2022-09-06T12:41:41.747Z,988.23
2022-09-06T12:42:39.555Z,988.19
2022-09-06T12:43:37.558Z,988.25
2022-09-06T12:44:37.538Z,988.16
2022-09-06T12:45:37.522Z,988.18
2022-09-06T12:46:37.623Z,988.15
2022-09-06T12:47:37.505Z,988.09
2022-09-06T12:48:37.496Z,988.15
2022-09-06T12:49:37.482Z,988.15
2022-09-06T12:50:37.482Z,988.16
2022-09-06T12:51:37.458Z,988.13
2022-09-06T12:52:37.476Z,988.09